createdAt,value
2022-08-07T00:02:35.181Z,16.40
2022-08-07T00:04:09.605Z,16.40
2022-08-07T00:06:51.389Z,16.30
2022-08-07T00:09:22.363Z,16.30
2022-08-07T00:11:55.373Z,16.30
2022-08-07T00:14:30.377Z,16.30
2022-08-07T00:17:00.005Z,16.20
2022-08-07T00:19:59.942Z,16.20
2022-08-07T00:22:24.782Z,16.20
2022-08-07T00:25:04.976Z,16.10
2022-08-07T00:27:35.826Z,16.10
2022-08-07T00:30:21.580Z,16.10
2022-08-07T00:32:56.214Z,16.00
2022-08-07T00:35:24.079Z,16.00
2022-08-07T00:37:51.228Z,16.00
2022-08-07T00:40:40.129Z,16.00
2022-08-07T00:43:09.694Z,15.90
2022-08-07T00:45:39.560Z,15.90
2022-08-07T00:48:10.872Z,15.90
2022-08-07T00:50:46.323Z,15.90
2022-08-07T00:53:17.949Z,15.90
2022-08-07T00:56:02.314Z,15.80
2022-08-07T00:58:30.468Z,15.80
2022-08-07T01:00:57.552Z,15.80
2022-08-07T01:03:57.202Z,15.80
2022-08-07T01:06:13.175Z,15.70
2022-08-07T01:08:43.098Z,15.70
2022-08-07T01:12:04.538Z,15.70
2022-08-07T01:14:02.847Z,15.70
2022-08-07T01:16:30.820Z,15.70
2022-08-07T01:18:58.377Z,15.60
2022-08-07T01:21:27.033Z,15.60
2022-08-07T01:23:56.909Z,15.60
2022-08-07T01:26:26.099Z,15.60
2022-08-07T01:28:54.229Z,15.60
2022-08-07T01:31:27.829Z,15.50
2022-08-07T01:34:08.762Z,15.50
2022-08-07T01:36:40.708Z,15.50
2022-08-07T01:39:10.030Z,15.50
2022-08-07T01:41:39.126Z,15.40
2022-08-07T01:44:22.050Z,15.40
2022-08-07T01:46:50.283Z,15.40
2022-08-07T01:49:17.047Z,15.30
2022-08-07T01:52:02.399Z,15.30
2022-08-07T01:54:37.531Z,15.30
2022-08-07T01:57:24.441Z,15.30
2022-08-07T01:59:57.445Z,15.20
2022-08-07T02:03:12.519Z,15.20
2022-08-07T02:05:43.241Z,15.20
2022-08-07T02:08:15.666Z,15.20
2022-08-07T02:10:44.423Z,15.20
2022-08-07T02:13:56.906Z,15.10
2022-08-07T02:16:11.972Z,15.10
2022-08-07T02:18:47.299Z,15.10
2022-08-07T02:21:16.624Z,15.00
2022-08-07T02:23:45.132Z,15.00
2022-08-07T02:26:34.102Z,15.00
2022-08-07T02:29:02.722Z,15.00
2022-08-07T02:31:32.539Z,14.90
2022-08-07T02:34:03.880Z,14.90
2022-08-07T02:36:39.546Z,14.90
2022-08-07T02:39:16.994Z,14.90
2022-08-07T02:41:57.920Z,14.90
2022-08-07T02:44:34.706Z,14.80
2022-08-07T02:47:05.319Z,14.80
2022-08-07T02:49:57.994Z,14.80
2022-08-07T02:52:32.236Z,14.80
2022-08-07T02:55:03.834Z,14.80
2022-08-07T02:57:34.351Z,14.70
2022-08-07T03:00:05.144Z,14.70
2022-08-07T03:02:41.914Z,14.70
2022-08-07T03:05:23.136Z,14.70
2022-08-07T03:08:07.000Z,14.60
2022-08-07T03:10:36.291Z,14.60
2022-08-07T03:13:08.758Z,14.60
2022-08-07T03:15:47.874Z,14.60
2022-08-07T03:18:25.827Z,14.50
2022-08-07T03:21:01.867Z,14.50
2022-08-07T03:23:33.632Z,14.50
2022-08-07T03:26:21.277Z,14.50
2022-08-07T03:28:51.628Z,14.50
2022-08-07T03:31:24.544Z,14.40
2022-08-07T03:34:01.768Z,14.40
2022-08-07T03:36:30.806Z,14.40
2022-08-07T03:39:05.200Z,14.40
2022-08-07T03:41:42.135Z,14.30
2022-08-07T03:44:15.454Z,14.30
2022-08-07T03:47:13.678Z,14.30
2022-08-07T03:49:30.904Z,14.20
2022-08-07T03:52:01.298Z,14.20
2022-08-07T03:54:36.042Z,14.20
2022-08-07T03:58:34.438Z,14.20
2022-08-07T04:00:05.242Z,14.20
2022-08-07T04:02:32.945Z,14.20
2022-08-07T04:04:59.775Z,14.20
2022-08-07T04:07:36.001Z,14.20
2022-08-07T04:10:15.622Z,14.20
2022-08-07T04:12:47.390Z,14.20
2022-08-07T04:15:16.188Z,14.20
2022-08-07T04:18:30.979Z,14.10
2022-08-07T04:20:31.651Z,14.10
2022-08-07T04:23:06.275Z,14.10
2022-08-07T04:25:39.067Z,14.10
2022-08-07T04:28:08.230Z,14.10
2022-08-07T04:30:43.580Z,14.10
2022-08-07T04:33:24.248Z,14.10
2022-08-07T04:35:54.122Z,14.10
2022-08-07T04:38:22.936Z,14.10
2022-08-07T04:40:52.852Z,14.10
2022-08-07T04:44:10.110Z,14.10
2022-08-07T04:46:34.828Z,14.10
2022-08-07T04:49:24.666Z,14.00
2022-08-07T04:52:25.199Z,14.00
2022-08-07T04:55:14.878Z,14.00
2022-08-07T04:58:47.669Z,14.00
2022-08-07T05:01:22.373Z,14.10
2022-08-07T05:04:21.650Z,14.00
2022-08-07T05:07:19.537Z,14.10
2022-08-07T05:10:11.791Z,14.10
2022-08-07T05:12:53.040Z,14.10
2022-08-07T05:15:26.622Z,14.10
2022-08-07T05:18:09.369Z,14.20
2022-08-07T05:20:58.742Z,14.20
2022-08-07T05:23:50.118Z,14.20
2022-08-07T05:26:24.569Z,14.30
2022-08-07T05:28:57.853Z,14.30
2022-08-07T05:31:34.656Z,14.30
2022-08-07T05:34:05.506Z,14.40
2022-08-07T05:36:40.371Z,14.40
2022-08-07T05:40:05.660Z,14.40
2022-08-07T05:42:01.650Z,14.50
2022-08-07T05:44:35.498Z,14.50
2022-08-07T05:47:18.009Z,14.60
2022-08-07T05:49:54.714Z,14.60
2022-08-07T05:52:32.600Z,14.70
2022-08-07T05:55:06.757Z,14.70
2022-08-07T05:57:38.357Z,14.80
2022-08-07T06:00:16.363Z,14.80
2022-08-07T06:02:48.539Z,14.90
2022-08-07T06:05:16.150Z,14.90
2022-08-07T06:08:29.819Z,14.90
2022-08-07T06:10:31.435Z,15.00
2022-08-07T06:12:59.814Z,15.00
2022-08-07T06:15:39.023Z,15.10
2022-08-07T06:18:12.071Z,15.10
2022-08-07T06:20:49.637Z,15.20
2022-08-07T06:23:46.068Z,15.20
2022-08-07T06:26:05.315Z,15.20
2022-08-07T06:28:33.940Z,15.30
2022-08-07T06:31:00.875Z,15.30
2022-08-07T06:33:33.107Z,15.40
2022-08-07T06:36:13.003Z,15.50
2022-08-07T06:38:51.320Z,15.50
2022-08-07T06:42:02.689Z,15.60
2022-08-07T06:44:36.565Z,15.70
2022-08-07T06:47:12.370Z,15.70
2022-08-07T06:49:51.845Z,15.80
2022-08-07T06:52:31.313Z,15.90
2022-08-07T06:55:34.502Z,15.90
2022-08-07T06:58:11.060Z,16.00
2022-08-07T07:00:42.450Z,16.10
2022-08-07T07:03:13.697Z,16.20
2022-08-07T07:06:04.725Z,16.30
2022-08-07T07:08:31.046Z,16.40
2022-08-07T07:11:00.926Z,16.70
2022-08-07T07:13:57.356Z,17.70
2022-08-07T07:16:45.399Z,18.90
2022-08-07T07:19:56.618Z,20.60
2022-08-07T07:22:33.874Z,21.90
2022-08-07T07:26:30.773Z,23.10
2022-08-07T07:28:42.077Z,24.10
2022-08-07T07:31:39.838Z,25.00
2022-08-07T07:34:33.427Z,25.80
2022-08-07T07:37:14.770Z,26.50
2022-08-07T07:39:55.793Z,27.00
2022-08-07T07:42:25.809Z,27.50
2022-08-07T07:45:04.896Z,27.90
2022-08-07T07:47:52.236Z,28.30
2022-08-07T07:50:36.671Z,28.60
2022-08-07T07:53:20.637Z,28.90
2022-08-07T07:56:00.604Z,29.10
2022-08-07T07:58:40.403Z,29.40
2022-08-07T08:02:01.529Z,29.70
2022-08-07T08:04:09.879Z,29.80
2022-08-07T08:06:48.108Z,29.80
2022-08-07T08:09:24.390Z,29.80
2022-08-07T08:12:03.876Z,29.80
2022-08-07T08:14:34.363Z,29.70
2022-08-07T08:17:55.842Z,29.60
2022-08-07T08:20:18.487Z,29.50
2022-08-07T08:23:08.602Z,29.30
2022-08-07T08:26:04.589Z,29.20
2022-08-07T08:28:37.768Z,29.00
2022-08-07T08:31:14.680Z,28.90
2022-08-07T08:33:49.638Z,28.80
2022-08-07T08:36:30.019Z,28.60
2022-08-07T08:39:02.190Z,28.60
2022-08-07T08:41:58.484Z,28.70
2022-08-07T08:44:57.794Z,28.80
2022-08-07T08:47:34.426Z,28.90
2022-08-07T08:50:39.200Z,29.10
2022-08-07T08:53:33.249Z,29.30
2022-08-07T08:56:06.106Z,29.50
2022-08-07T08:58:54.582Z,29.60
2022-08-07T09:01:49.434Z,29.70
2022-08-07T09:04:42.050Z,29.70
2022-08-07T09:07:46.280Z,29.80
2022-08-07T09:10:27.776Z,29.90
2022-08-07T09:13:11.076Z,30.00
2022-08-07T09:16:22.308Z,29.90
2022-08-07T09:19:51.031Z,30.00
2022-08-07T09:24:31.146Z,30.10
2022-08-07T09:25:54.315Z,30.20
2022-08-07T09:30:04.693Z,30.40
2022-08-07T09:31:49.604Z,30.70
2022-08-07T09:34:26.166Z,30.70
2022-08-07T09:36:59.751Z,30.50
2022-08-07T09:39:54.149Z,30.30
2022-08-07T09:42:33.670Z,30.20
2022-08-07T09:46:28.650Z,30.20
2022-08-07T09:48:14.609Z,30.30
2022-08-07T09:52:15.332Z,30.40
2022-08-07T09:54:28.430Z,30.60
2022-08-07T09:57:15.926Z,30.50
2022-08-07T10:00:03.646Z,30.30
2022-08-07T10:02:55.458Z,30.40
2022-08-07T10:05:59.277Z,30.60
2022-08-07T10:08:45.718Z,30.60
2022-08-07T10:12:01.517Z,30.80
2022-08-07T10:14:54.481Z,30.80
2022-08-07T10:18:01.118Z,30.60
2022-08-07T10:20:31.875Z,30.60
2022-08-07T10:24:06.070Z,30.80
2022-08-07T10:26:51.796Z,31.00
2022-08-07T10:29:30.302Z,31.20
2022-08-07T10:32:51.161Z,31.30
2022-08-07T10:35:53.643Z,31.40
2022-08-07T10:39:00.922Z,31.50
2022-08-07T10:41:52.368Z,31.60
2022-08-07T10:44:48.066Z,31.70
2022-08-07T10:47:52.598Z,31.80
2022-08-07T10:50:26.024Z,31.80
2022-08-07T10:53:21.719Z,32.00
2022-08-07T10:56:20.847Z,32.10
2022-08-07T10:59:21.616Z,32.10
2022-08-07T11:02:04.814Z,32.10
2022-08-07T11:05:16.182Z,32.20
2022-08-07T11:08:30.374Z,32.50
2022-08-07T11:11:11.312Z,32.50
2022-08-07T11:14:45.254Z,32.70
2022-08-07T11:16:55.746Z,32.90
2022-08-07T11:19:53.132Z,33.00
2022-08-07T11:22:47.049Z,33.00
2022-08-07T11:25:16.819Z,32.70
2022-08-07T11:28:15.508Z,32.50
2022-08-07T11:31:02.663Z,32.60
2022-08-07T11:33:58.626Z,32.70
2022-08-07T11:36:53.236Z,32.70
2022-08-07T11:39:59.141Z,32.70
2022-08-07T11:42:36.703Z,32.60
2022-08-07T11:45:49.886Z,32.50
2022-08-07T11:48:49.965Z,32.60
2022-08-07T11:51:57.119Z,32.70
2022-08-07T11:54:54.527Z,32.80
2022-08-07T11:58:00.689Z,32.80
2022-08-07T12:00:18.963Z,33.00
2022-08-07T12:03:05.404Z,33.20
2022-08-07T12:05:49.500Z,33.50
2022-08-07T12:08:31.935Z,33.70
2022-08-07T12:11:21.542Z,33.80
2022-08-07T12:14:20.458Z,33.70
2022-08-07T12:17:29.081Z,33.60
2022-08-07T12:20:30.799Z,33.60
2022-08-07T12:24:05.561Z,33.70
2022-08-07T12:26:46.995Z,33.60
2022-08-07T12:29:46.707Z,33.70
2022-08-07T12:32:31.496Z,33.80
2022-08-07T12:35:08.325Z,34.00
2022-08-07T12:38:10.232Z,34.10
2022-08-07T12:40:47.687Z,34.10
2022-08-07T12:44:02.907Z,34.10
2022-08-07T12:46:26.627Z,34.00
2022-08-07T12:49:48.666Z,33.80
2022-08-07T12:52:19.344Z,33.80
2022-08-07T12:55:05.400Z,33.70
2022-08-07T12:57:59.192Z,33.70
2022-08-07T13:00:50.253Z,33.80
2022-08-07T13:04:01.941Z,33.80
2022-08-07T13:07:01.202Z,33.90
2022-08-07T13:10:37.578Z,33.80
2022-08-07T13:13:10.933Z,33.70
2022-08-07T13:15:59.721Z,33.70
2022-08-07T13:18:50.708Z,33.80
2022-08-07T13:21:50.292Z,33.80
2022-08-07T13:24:43.843Z,33.90
2022-08-07T13:28:11.459Z,34.00
2022-08-07T13:30:40.811Z,34.00
2022-08-07T13:34:34.090Z,33.90
2022-08-07T13:36:30.392Z,33.80
2022-08-07T13:39:13.119Z,33.70
2022-08-07T13:41:59.031Z,33.80
2022-08-07T13:44:34.445Z,33.70
2022-08-07T13:47:09.137Z,33.60
2022-08-07T13:50:33.239Z,33.60
2022-08-07T13:52:39.554Z,33.60
2022-08-07T13:55:25.886Z,33.60
2022-08-07T13:58:28.074Z,33.60
2022-08-07T14:01:09.178Z,33.70
2022-08-07T14:04:06.668Z,33.70
2022-08-07T14:06:35.742Z,33.80
2022-08-07T14:09:05.106Z,33.80
2022-08-07T14:11:53.505Z,33.90
2022-08-07T14:14:38.750Z,34.10
2022-08-07T14:17:51.414Z,34.00
2022-08-07T14:20:41.091Z,33.90
2022-08-07T14:22:56.824Z,33.80
2022-08-07T14:25:29.445Z,33.90
2022-08-07T14:28:13.377Z,33.80
2022-08-07T14:30:52.041Z,33.70
2022-08-07T14:36:16.313Z,33.60
2022-08-07T14:42:20.426Z,33.50
2022-08-07T14:44:22.941Z,33.40
2022-08-07T14:49:57.355Z,33.20
2022-08-07T14:52:28.982Z,33.00
2022-08-07T14:55:01.543Z,32.80
2022-08-07T14:57:58.765Z,32.80
2022-08-07T15:00:30.484Z,32.70
2022-08-07T15:03:18.629Z,32.50
2022-08-07T15:05:55.306Z,32.50
2022-08-07T15:08:49.804Z,32.50
2022-08-07T15:11:53.706Z,32.50
2022-08-07T15:14:21.351Z,32.50
2022-08-07T15:17:00.665Z,32.60
2022-08-07T15:22:29.447Z,32.50
2022-08-07T15:25:13.906Z,32.50
2022-08-07T15:30:36.608Z,32.40
2022-08-07T15:33:35.970Z,32.40
2022-08-07T15:36:08.629Z,32.40
2022-08-07T15:42:45.706Z,32.20
2022-08-07T15:44:27.940Z,32.20
2022-08-07T15:47:03.633Z,32.20
2022-08-07T15:50:05.812Z,32.10
2022-08-07T15:52:30.525Z,31.90
2022-08-07T15:55:02.167Z,31.80
2022-08-07T15:57:47.894Z,31.60
2022-08-07T16:00:31.733Z,31.30
2022-08-07T16:03:04.540Z,31.10
2022-08-07T16:05:36.131Z,30.80
2022-08-07T16:08:30.578Z,30.50
2022-08-07T16:11:33.177Z,30.50
2022-08-07T16:14:32.337Z,30.30
2022-08-07T16:17:15.128Z,30.20
2022-08-07T16:20:33.406Z,30.00
2022-08-07T16:23:25.179Z,29.70
2022-08-07T16:26:14.381Z,29.40
2022-08-07T16:30:10.941Z,29.20
2022-08-07T16:32:35.079Z,29.20
2022-08-07T16:35:58.432Z,29.00
2022-08-07T16:38:11.504Z,28.90
2022-08-07T16:41:02.047Z,28.70
2022-08-07T16:44:40.259Z,28.60
2022-08-07T16:47:56.649Z,28.30
2022-08-07T16:51:13.392Z,28.10
2022-08-07T16:54:01.913Z,28.00
2022-08-07T16:56:53.235Z,27.90
2022-08-07T16:59:58.115Z,27.70
2022-08-07T17:02:52.315Z,27.60
2022-08-07T17:06:19.670Z,27.50
2022-08-07T17:09:09.933Z,27.40
2022-08-07T17:12:03.864Z,27.30
2022-08-07T17:15:08.982Z,27.30
2022-08-07T17:18:25.965Z,27.30
2022-08-07T17:20:55.099Z,27.30
2022-08-07T17:23:46.461Z,27.20
2022-08-07T17:26:30.585Z,27.20
2022-08-07T17:30:14.322Z,27.30
2022-08-07T17:32:31.348Z,27.00
2022-08-07T17:35:50.743Z,26.80
2022-08-07T17:38:35.040Z,26.70
2022-08-07T17:42:00.987Z,26.60
2022-08-07T17:44:08.361Z,26.50
2022-08-07T17:46:52.429Z,26.50
2022-08-07T17:49:24.806Z,26.40
2022-08-07T17:52:10.448Z,26.40
2022-08-07T17:54:54.410Z,26.30
2022-08-07T17:57:55.991Z,26.20
2022-08-07T18:00:33.168Z,26.10
2022-08-07T18:03:18.209Z,25.90
2022-08-07T18:06:02.400Z,25.80
2022-08-07T18:09:01.747Z,25.70
2022-08-07T18:12:17.804Z,25.60
2022-08-07T18:14:45.149Z,25.40
2022-08-07T18:18:44.853Z,25.30
2022-08-07T18:21:06.659Z,25.20
2022-08-07T18:24:08.933Z,25.00
2022-08-07T18:27:06.349Z,24.90
2022-08-07T18:30:07.391Z,24.80
2022-08-07T18:33:15.930Z,24.70
2022-08-07T18:35:55.756Z,24.60
2022-08-07T18:38:57.158Z,24.50
2022-08-07T18:41:45.729Z,24.30
2022-08-07T18:44:29.732Z,24.30
2022-08-07T18:47:07.026Z,24.20
2022-08-07T18:50:30.305Z,24.10
2022-08-07T18:52:53.957Z,24.00
2022-08-07T18:55:56.254Z,23.90
2022-08-07T18:58:51.780Z,23.80
2022-08-07T19:02:32.246Z,23.70
2022-08-07T19:04:30.867Z,23.60
2022-08-07T19:07:35.223Z,23.40
2022-08-07T19:10:18.317Z,23.30
2022-08-07T19:13:11.498Z,23.20
2022-08-07T19:17:05.890Z,23.20
2022-08-07T19:19:45.140Z,23.10
2022-08-07T19:22:30.749Z,22.90
2022-08-07T19:25:05.515Z,22.80
2022-08-07T19:28:57.682Z,22.60
2022-08-07T19:31:02.236Z,22.60
2022-08-07T19:33:16.858Z,22.40
2022-08-07T19:35:53.949Z,22.30
2022-08-07T19:38:23.599Z,22.20
2022-08-07T19:41:00.380Z,22.10
2022-08-07T19:43:50.332Z,22.10
2022-08-07T19:46:22.449Z,22.00
2022-08-07T19:49:01.071Z,21.90
2022-08-07T19:51:52.611Z,21.90
2022-08-07T19:54:32.021Z,21.80
2022-08-07T19:58:01.452Z,21.70
2022-08-07T19:59:56.017Z,21.60
2022-08-07T20:02:59.936Z,21.50
2022-08-07T20:05:31.084Z,21.50
2022-08-07T20:08:23.699Z,21.40
2022-08-07T20:11:15.130Z,21.30
2022-08-07T20:13:55.174Z,21.30
2022-08-07T20:16:34.884Z,21.20
2022-08-07T20:19:10.562Z,21.20
2022-08-07T20:21:46.793Z,21.10
2022-08-07T20:24:34.387Z,21.00
2022-08-07T20:27:07.505Z,21.00
2022-08-07T20:29:48.965Z,20.90
2022-08-07T20:32:39.638Z,20.80
2022-08-07T20:35:25.303Z,20.80
2022-08-07T20:37:57.840Z,20.70
2022-08-07T20:40:32.741Z,20.70
2022-08-07T20:43:14.836Z,20.60
2022-08-07T20:46:28.786Z,20.60
2022-08-07T20:48:58.087Z,20.50
2022-08-07T20:51:35.721Z,20.40
2022-08-07T20:54:09.352Z,20.40
2022-08-07T20:56:48.923Z,20.30
2022-08-07T21:00:04.219Z,20.30
2022-08-07T21:02:35.537Z,20.20
2022-08-07T21:05:16.207Z,20.20
2022-08-07T21:07:48.913Z,20.10
2022-08-07T21:10:25.116Z,20.00
2022-08-07T21:12:59.611Z,20.00
2022-08-07T21:15:48.100Z,19.90
2022-08-07T21:18:33.390Z,19.90
2022-08-07T21:21:01.741Z,19.80
2022-08-07T21:23:55.897Z,19.70
2022-08-07T21:26:42.937Z,19.70
2022-08-07T21:29:21.198Z,19.60
2022-08-07T21:32:46.755Z,19.60
2022-08-07T21:35:11.496Z,19.50
2022-08-07T21:38:02.369Z,19.50
2022-08-07T21:40:41.601Z,19.40
2022-08-07T21:43:56.277Z,19.40
2022-08-07T21:46:36.718Z,19.40
2022-08-07T21:49:14.574Z,19.30
2022-08-07T21:52:11.721Z,19.30
2022-08-07T21:55:28.282Z,19.30
2022-08-07T21:58:29.985Z,19.20
2022-08-07T22:01:08.498Z,19.20
2022-08-07T22:03:50.902Z,19.10
2022-08-07T22:06:30.457Z,19.10
2022-08-07T22:09:10.285Z,19.10
2022-08-07T22:12:05.482Z,19.00
2022-08-07T22:14:59.548Z,19.00
2022-08-07T22:17:36.247Z,18.90
2022-08-07T22:20:24.698Z,18.90
2022-08-07T22:22:58.980Z,18.80
2022-08-07T22:25:45.732Z,18.80
2022-08-07T22:28:48.547Z,18.70
2022-08-07T22:31:56.435Z,18.70
2022-08-07T22:34:55.468Z,18.60
2022-08-07T22:38:02.907Z,18.60
2022-08-07T22:40:55.675Z,18.50
2022-08-07T22:43:36.181Z,18.50
2022-08-07T22:47:03.938Z,18.50
2022-08-07T22:49:42.835Z,18.40
2022-08-07T22:52:45.902Z,18.40
2022-08-07T22:55:46.358Z,18.30
2022-08-07T22:58:28.309Z,18.30
2022-08-07T23:01:24.153Z,18.20
2022-08-07T23:04:18.535Z,18.20
2022-08-07T23:07:42.913Z,18.20
2022-08-07T23:10:42.193Z,18.20
2022-08-07T23:13:48.859Z,18.10
2022-08-07T23:16:58.362Z,18.10
2022-08-07T23:20:09.900Z,18.00
2022-08-07T23:22:59.168Z,18.00
2022-08-07T23:25:41.545Z,18.00
2022-08-07T23:28:28.603Z,17.90
2022-08-07T23:31:06.151Z,17.90
2022-08-07T23:34:22.666Z,17.90
2022-08-07T23:37:19.610Z,17.80
2022-08-07T23:39:47.392Z,17.80
2022-08-07T23:42:49.526Z,17.70
2022-08-07T23:46:03.454Z,17.70
2022-08-07T23:49:15.226Z,17.70
2022-08-07T23:53:02.153Z,17.70
2022-08-07T23:54:44.040Z,17.60
2022-08-07T23:57:22.429Z,17.60
